createdAt,value
2022-12-22T00:01:49.826Z,11.07
2022-12-22T00:04:35.430Z,11.50
2022-12-22T00:07:20.817Z,9.75
2022-12-22T00:10:05.959Z,10.80
2022-12-22T00:12:51.293Z,10.98
2022-12-22T00:15:37.287Z,9.30
2022-12-22T00:18:23.892Z,8.20
2022-12-22T00:21:09.317Z,10.23
2022-12-22T00:23:54.712Z,7.82
2022-12-22T00:26:39.635Z,11.20
2022-12-22T00:29:25.310Z,9.55
2022-12-22T00:32:10.865Z,9.93
2022-12-22T00:35:00.659Z,8.48
2022-12-22T00:37:51.488Z,9.40
2022-12-22T00:40:39.861Z,11.82
2022-12-22T00:43:25.533Z,9.63
2022-12-22T00:46:11.489Z,9.23
2022-12-22T00:48:59.088Z,10.55
2022-12-22T00:51:44.484Z,12.55
2022-12-22T00:54:31.327Z,12.10
2022-12-22T00:57:20.669Z,10.55
2022-12-22T01:00:07.387Z,10.95
2022-12-22T01:02:53.132Z,11.07
2022-12-22T01:05:38.328Z,11.55
2022-12-22T01:11:09.189Z,9.85
2022-12-22T01:13:54.366Z,10.30
2022-12-22T01:16:39.397Z,11.25
2022-12-22T01:22:09.454Z,9.20
2022-12-22T01:27:39.732Z,5.78
2022-12-22T01:30:25.647Z,8.40
2022-12-22T01:33:10.789Z,8.30
2022-12-22T01:38:40.832Z,9.45
2022-12-22T01:41:33.681Z,10.07
2022-12-22T01:44:19.078Z,10.02
2022-12-22T01:47:05.872Z,10.32
2022-12-22T01:50:01.702Z,9.60
2022-12-22T01:52:53.646Z,10.55
2022-12-22T01:55:42.710Z,10.07
2022-12-22T01:58:45.726Z,9.00
2022-12-22T02:01:31.089Z,10.60
2022-12-22T02:04:16.232Z,10.45
2022-12-22T02:10:02.738Z,5.72
2022-12-22T02:13:12.412Z,7.03
2022-12-22T02:16:28.556Z,10.43
2022-12-22T02:19:19.928Z,6.68
2022-12-22T02:25:17.282Z,7.85
2022-12-22T02:28:04.271Z,8.63
2022-12-22T02:30:51.580Z,8.63
2022-12-22T02:33:38.813Z,9.35
2022-12-22T02:36:31.473Z,10.27
2022-12-22T02:39:42.709Z,8.52
2022-12-22T02:42:46.746Z,10.52
2022-12-22T02:45:47.545Z,10.38
2022-12-22T02:48:48.005Z,10.57
2022-12-22T02:51:37.878Z,7.20
2022-12-22T02:54:25.796Z,5.55
2022-12-22T02:57:11.059Z,6.95
2022-12-22T02:59:56.488Z,8.32
2022-12-22T03:02:41.722Z,10.27
2022-12-22T03:05:26.964Z,8.30
2022-12-22T03:08:12.658Z,9.63
2022-12-22T03:10:57.684Z,6.47
2022-12-22T03:16:28.195Z,6.20
2022-12-22T03:19:13.439Z,6.65
2022-12-22T03:21:59.600Z,6.68
2022-12-22T03:24:44.919Z,8.48
2022-12-22T03:27:11.611Z,8.02
2022-12-22T03:29:38.486Z,9.20
2022-12-22T03:32:05.289Z,10.57
2022-12-22T03:34:31.896Z,9.52
2022-12-22T03:36:58.513Z,10.85
2022-12-22T03:39:25.194Z,10.82
2022-12-22T03:42:10.512Z,8.10
2022-12-22T03:44:55.786Z,10.52
2022-12-22T03:47:22.395Z,10.98
2022-12-22T03:49:49.081Z,10.48
2022-12-22T03:52:15.834Z,11.35
2022-12-22T03:54:42.432Z,10.57
2022-12-22T03:57:09.040Z,9.13
2022-12-22T03:59:35.695Z,10.38
2022-12-22T04:02:02.408Z,7.00
2022-12-22T04:04:29.281Z,11.45
2022-12-22T04:06:55.981Z,7.72
2022-12-22T04:09:22.781Z,11.05
2022-12-22T04:12:07.888Z,9.95
2022-12-22T04:17:05.744Z,11.35
2022-12-22T04:19:32.672Z,12.07
2022-12-22T04:21:59.443Z,12.30
2022-12-22T04:24:26.091Z,12.88
2022-12-22T04:26:52.979Z,8.68
2022-12-22T04:29:19.597Z,13.48
2022-12-22T04:31:46.301Z,13.75
2022-12-22T04:34:12.941Z,12.43
2022-12-22T04:36:39.627Z,9.55
2022-12-22T04:39:06.237Z,13.73
2022-12-22T04:41:33.012Z,13.30
2022-12-22T04:43:59.603Z,12.20
2022-12-22T04:46:26.248Z,11.13
2022-12-22T04:48:59.266Z,11.02
2022-12-22T04:51:26.982Z,11.07
2022-12-22T04:53:53.653Z,11.63
2022-12-22T04:56:20.294Z,7.57
2022-12-22T04:58:46.924Z,9.15
2022-12-22T05:01:16.817Z,6.32
2022-12-22T05:03:43.817Z,8.30
2022-12-22T05:06:11.253Z,8.23
2022-12-22T05:08:38.372Z,8.25
2022-12-22T05:11:05.424Z,8.13
2022-12-22T05:13:32.326Z,8.63
2022-12-22T05:16:07.737Z,8.00
2022-12-22T05:18:35.320Z,8.07
2022-12-22T05:21:04.206Z,6.82
2022-12-22T05:23:30.868Z,6.57
2022-12-22T05:25:57.563Z,6.88
2022-12-22T05:28:24.219Z,7.18
2022-12-22T05:30:50.970Z,6.28
2022-12-22T05:33:17.616Z,7.65
2022-12-22T05:35:44.293Z,6.20
2022-12-22T05:38:10.869Z,5.22
2022-12-22T05:40:37.474Z,6.07
2022-12-22T05:43:04.619Z,5.68
2022-12-22T05:45:31.201Z,6.53
2022-12-22T05:47:57.827Z,6.07
2022-12-22T05:50:26.111Z,6.32
2022-12-22T05:52:53.990Z,5.95
2022-12-22T05:55:20.693Z,5.38
2022-12-22T05:57:47.337Z,6.03
2022-12-22T06:00:15.777Z,5.05
2022-12-22T06:02:43.592Z,4.70
2022-12-22T06:05:12.259Z,5.97
2022-12-22T06:07:39.004Z,5.85
2022-12-22T06:10:11.983Z,4.97
2022-12-22T06:12:40.996Z,5.55
2022-12-22T06:15:08.658Z,5.53
2022-12-22T06:17:40.457Z,6.07
2022-12-22T06:20:11.391Z,6.53
2022-12-22T06:22:38.004Z,8.30
2022-12-22T06:25:05.053Z,7.70
2022-12-22T06:27:31.774Z,10.73
2022-12-22T06:29:58.439Z,6.35
2022-12-22T06:32:25.055Z,6.60
2022-12-22T06:34:51.713Z,5.13
2022-12-22T06:37:18.324Z,6.43
2022-12-22T06:39:44.937Z,5.00
2022-12-22T06:42:46.823Z,4.85
2022-12-22T06:45:13.526Z,3.33
2022-12-22T06:47:40.203Z,4.78
2022-12-22T06:50:07.464Z,6.00
2022-12-22T06:52:34.824Z,6.05
2022-12-22T06:55:02.370Z,4.43
2022-12-22T06:57:29.534Z,6.18
2022-12-22T06:59:57.876Z,6.10
2022-12-22T07:02:25.419Z,5.68
2022-12-22T07:04:52.339Z,3.30
2022-12-22T07:07:19.022Z,8.05
2022-12-22T07:09:45.694Z,7.97
2022-12-22T07:12:13.427Z,5.50
2022-12-22T07:14:40.124Z,6.32
2022-12-22T07:17:06.834Z,6.13
2022-12-22T07:19:33.431Z,5.68
2022-12-22T07:22:00.101Z,8.63
2022-12-22T07:24:26.838Z,5.90
2022-12-22T07:26:53.657Z,4.18
2022-12-22T07:29:20.372Z,5.70
2022-12-22T07:31:47.702Z,6.38
2022-12-22T07:34:14.515Z,6.53
2022-12-22T07:36:41.234Z,3.90
2022-12-22T07:39:08.232Z,6.15
2022-12-22T07:41:53.621Z,6.60
2022-12-22T07:44:20.221Z,4.10
2022-12-22T07:46:46.954Z,5.10
2022-12-22T07:49:32.293Z,8.18
2022-12-22T07:51:59.530Z,7.38
2022-12-22T07:54:28.211Z,8.13
2022-12-22T07:56:55.346Z,7.45
2022-12-22T07:59:22.249Z,7.43
2022-12-22T08:01:49.257Z,7.90
2022-12-22T08:04:16.024Z,5.82
2022-12-22T08:06:43.091Z,8.60
2022-12-22T08:09:13.139Z,8.43
2022-12-22T08:11:39.778Z,7.20
2022-12-22T08:14:06.399Z,3.42
2022-12-22T08:16:33.361Z,8.20
2022-12-22T08:19:00.159Z,7.30
2022-12-22T08:21:26.821Z,7.55
2022-12-22T08:23:53.500Z,10.00
2022-12-22T08:26:35.092Z,6.82
2022-12-22T08:29:10.564Z,8.30
2022-12-22T08:31:38.566Z,4.40
2022-12-22T08:34:08.342Z,7.85
2022-12-22T08:36:40.293Z,7.95
2022-12-22T08:39:07.909Z,7.53
2022-12-22T08:41:51.225Z,13.82
2022-12-22T08:44:24.150Z,11.75
2022-12-22T08:46:52.631Z,9.00
2022-12-22T08:49:19.529Z,10.77
2022-12-22T08:51:46.755Z,13.15
2022-12-22T08:54:13.476Z,11.80
2022-12-22T08:56:40.207Z,14.75
2022-12-22T08:59:08.101Z,15.32
2022-12-22T09:01:37.406Z,16.90
2022-12-22T09:04:05.016Z,15.30
2022-12-22T09:06:38.553Z,17.05
2022-12-22T09:09:10.298Z,14.45
2022-12-22T09:11:37.270Z,15.00
2022-12-22T09:14:05.242Z,14.35
2022-12-22T09:16:33.524Z,16.00
2022-12-22T09:19:01.096Z,10.35
2022-12-22T09:21:28.935Z,10.82
2022-12-22T09:23:56.822Z,12.77
2022-12-22T09:26:25.805Z,11.25
2022-12-22T09:28:53.095Z,15.30
2022-12-22T09:31:21.688Z,13.20
2022-12-22T09:33:49.025Z,15.00
2022-12-22T09:36:19.356Z,11.50
2022-12-22T09:38:46.266Z,13.38
2022-12-22T09:41:27.259Z,13.82
2022-12-22T09:43:56.173Z,8.30
2022-12-22T09:46:26.487Z,12.30
2022-12-22T09:48:54.190Z,12.93
2022-12-22T09:51:26.829Z,12.95
2022-12-22T09:54:01.925Z,14.20
2022-12-22T09:56:29.639Z,10.05
2022-12-22T09:58:57.234Z,9.73
2022-12-22T10:01:48.580Z,8.45
2022-12-22T10:04:46.808Z,11.93
2022-12-22T10:07:33.354Z,11.43
2022-12-22T10:10:28.505Z,9.02
2022-12-22T10:12:56.953Z,8.55
2022-12-22T10:15:24.588Z,7.10
2022-12-22T10:17:53.473Z,7.78
2022-12-22T10:20:28.049Z,7.53
2022-12-22T10:23:02.261Z,8.45
2022-12-22T10:26:16.956Z,6.45
2022-12-22T10:28:40.800Z,7.30
2022-12-22T10:31:13.128Z,7.63
2022-12-22T10:33:46.257Z,7.18
2022-12-22T10:36:14.904Z,6.85
2022-12-22T10:38:53.623Z,5.68
2022-12-22T10:43:53.296Z,7.30
2022-12-22T10:46:32.910Z,8.40
2022-12-22T10:49:29.767Z,6.05
2022-12-22T10:52:16.506Z,5.28
2022-12-22T10:54:45.041Z,7.20
2022-12-22T10:57:14.957Z,5.28
2022-12-22T10:59:55.703Z,6.38
2022-12-22T11:02:25.254Z,6.38
2022-12-22T11:04:53.406Z,6.00
2022-12-22T11:07:20.203Z,5.78
2022-12-22T11:09:47.058Z,6.55
2022-12-22T11:12:27.782Z,7.47
2022-12-22T11:15:18.569Z,6.32
2022-12-22T11:17:51.709Z,4.00
2022-12-22T11:20:39.502Z,4.18
2022-12-22T11:23:17.977Z,7.25
2022-12-22T11:25:50.867Z,5.20
2022-12-22T11:28:49.230Z,6.65
2022-12-22T11:31:22.526Z,5.70
2022-12-22T11:34:03.882Z,5.28
2022-12-22T11:37:01.322Z,7.10
2022-12-22T11:39:42.267Z,5.80
2022-12-22T11:42:47.880Z,5.28
2022-12-22T11:45:42.705Z,7.40
2022-12-22T11:48:38.787Z,7.20
2022-12-22T11:51:27.575Z,8.13
2022-12-22T11:54:26.161Z,6.53
2022-12-22T11:57:17.279Z,6.50
2022-12-22T11:59:47.396Z,5.85
2022-12-22T12:02:32.830Z,6.90
2022-12-22T12:05:19.456Z,4.53
2022-12-22T12:07:54.864Z,6.68
2022-12-22T12:10:28.683Z,6.53
2022-12-22T12:13:01.891Z,4.97
2022-12-22T12:15:44.985Z,4.68
2022-12-22T12:18:51.574Z,7.15
2022-12-22T12:21:26.665Z,6.22
2022-12-22T12:24:08.119Z,6.80
2022-12-22T12:26:49.843Z,6.03
2022-12-22T12:29:26.050Z,6.72
2022-12-22T12:32:07.771Z,6.63
2022-12-22T12:34:38.482Z,4.10
2022-12-22T12:37:25.872Z,5.13
2022-12-22T12:40:29.660Z,6.00
2022-12-22T12:42:57.410Z,4.35
2022-12-22T12:45:45.268Z,5.00
2022-12-22T12:48:20.887Z,4.20
2022-12-22T12:50:53.415Z,5.82
2022-12-22T12:53:28.109Z,4.53
2022-12-22T12:56:04.802Z,6.18
2022-12-22T12:58:40.163Z,5.38
2022-12-22T13:01:27.131Z,2.92
2022-12-22T13:04:03.222Z,4.18
2022-12-22T13:06:51.816Z,4.30
2022-12-22T13:12:49.323Z,5.28
2022-12-22T13:15:38.155Z,2.80
2022-12-22T13:18:25.066Z,4.88
2022-12-22T13:24:25.780Z,4.88
2022-12-22T13:26:55.884Z,3.90
2022-12-22T13:29:22.649Z,3.80
2022-12-22T13:31:54.696Z,3.67
2022-12-22T13:37:45.045Z,3.47
2022-12-22T13:40:21.729Z,3.55
2022-12-22T13:42:48.601Z,3.67
2022-12-22T13:45:20.331Z,3.20
2022-12-22T13:47:49.060Z,3.47
2022-12-22T13:50:24.249Z,2.85
2022-12-22T13:52:52.745Z,3.25
2022-12-22T13:55:25.908Z,2.53
2022-12-22T13:57:58.410Z,3.53
2022-12-22T14:00:26.932Z,2.10
2022-12-22T14:02:53.838Z,3.40
2022-12-22T14:05:21.371Z,3.10
2022-12-22T14:08:14.040Z,3.20
2022-12-22T14:10:44.456Z,2.35
2022-12-22T14:13:22.176Z,2.50
2022-12-22T14:15:59.022Z,3.05
2022-12-22T14:18:26.710Z,4.03
2022-12-22T14:20:54.117Z,3.42
2022-12-22T14:23:32.701Z,2.55
2022-12-22T14:26:01.938Z,4.38
2022-12-22T14:28:38.282Z,3.60
2022-12-22T14:31:07.035Z,3.30
2022-12-22T14:33:34.856Z,4.50
2022-12-22T14:36:15.429Z,4.20
2022-12-22T14:38:48.681Z,4.35
2022-12-22T14:41:44.026Z,3.55
2022-12-22T14:44:27.231Z,3.33
2022-12-22T14:47:12.444Z,4.57
2022-12-22T14:49:51.352Z,3.45
2022-12-22T14:52:27.047Z,6.07
2022-12-22T14:54:55.486Z,5.10
2022-12-22T14:57:40.933Z,5.15
2022-12-22T15:00:10.010Z,3.80
2022-12-22T15:02:48.897Z,4.10
2022-12-22T15:05:37.350Z,3.08
2022-12-22T15:08:27.124Z,4.70
2022-12-22T15:10:53.753Z,3.83
2022-12-22T15:13:23.843Z,3.92
2022-12-22T15:15:51.575Z,5.07
2022-12-22T15:18:22.313Z,4.63
2022-12-22T15:20:48.936Z,4.85
2022-12-22T15:23:17.239Z,6.00
2022-12-22T15:25:44.260Z,4.72
2022-12-22T15:28:11.122Z,6.35
2022-12-22T15:30:38.557Z,3.33
2022-12-22T15:33:19.384Z,4.93
2022-12-22T15:35:46.695Z,4.15
2022-12-22T15:38:18.761Z,3.67
2022-12-22T15:40:46.625Z,4.60
2022-12-22T15:43:53.451Z,4.63
2022-12-22T15:46:02.327Z,7.57
2022-12-22T15:48:33.115Z,5.15
2022-12-22T15:51:01.822Z,4.90
2022-12-22T15:53:28.554Z,5.18
2022-12-22T15:55:58.495Z,4.05
2022-12-22T15:58:31.083Z,5.25
2022-12-22T16:03:26.400Z,4.00
2022-12-22T16:05:54.585Z,2.65
2022-12-22T16:08:27.564Z,4.75
2022-12-22T16:10:54.334Z,3.95
2022-12-22T16:13:25.954Z,5.45
2022-12-22T16:15:53.170Z,3.88
2022-12-22T16:18:19.888Z,3.63
2022-12-22T16:20:50.147Z,6.13
2022-12-22T16:23:19.672Z,4.85
2022-12-22T16:25:47.469Z,3.97
2022-12-22T16:28:24.949Z,5.90
2022-12-22T16:30:52.327Z,4.88
2022-12-22T16:33:20.033Z,4.35
2022-12-22T16:35:46.675Z,5.68
2022-12-22T16:38:18.548Z,5.10
2022-12-22T16:40:49.159Z,4.95
2022-12-22T16:43:50.623Z,5.63
2022-12-22T16:46:20.707Z,4.97
2022-12-22T16:48:55.804Z,5.13
2022-12-22T16:51:36.892Z,3.20
2022-12-22T16:54:03.832Z,6.22
2022-12-22T16:56:32.064Z,6.32
2022-12-22T16:59:00.854Z,3.95
2022-12-22T17:01:48.971Z,3.90
2022-12-22T17:04:20.269Z,5.93
2022-12-22T17:06:48.836Z,3.78
2022-12-22T17:09:20.862Z,3.50
2022-12-22T17:11:48.052Z,3.88
2022-12-22T17:14:31.981Z,4.38
2022-12-22T17:16:59.549Z,4.25
2022-12-22T17:19:26.191Z,3.95
2022-12-22T17:21:53.564Z,3.95
2022-12-22T17:24:27.849Z,4.43
2022-12-22T17:26:56.836Z,5.38
2022-12-22T17:29:24.288Z,4.10
2022-12-22T17:31:51.899Z,4.28
2022-12-22T17:34:19.588Z,5.05
2022-12-22T17:36:48.242Z,5.07
2022-12-22T17:39:18.532Z,5.00
2022-12-22T17:41:49.041Z,3.88
2022-12-22T17:44:23.307Z,4.38
2022-12-22T17:46:50.026Z,2.58
2022-12-22T17:49:19.823Z,3.83
2022-12-22T17:51:46.988Z,5.38
2022-12-22T17:54:25.516Z,4.63
2022-12-22T17:57:02.178Z,2.88
2022-12-22T17:59:29.603Z,4.78
2022-12-22T18:01:56.395Z,5.00
2022-12-22T18:04:23.113Z,3.13
2022-12-22T18:06:49.843Z,4.00
2022-12-22T18:09:23.388Z,5.35
2022-12-22T18:11:50.745Z,5.45
2022-12-22T18:14:18.431Z,3.20
2022-12-22T18:16:45.205Z,3.83
2022-12-22T18:19:11.980Z,3.33
2022-12-22T18:21:38.821Z,2.25
2022-12-22T18:24:06.028Z,3.63
2022-12-22T18:26:32.873Z,3.75
2022-12-22T18:28:59.944Z,3.97
2022-12-22T18:31:26.637Z,3.42
2022-12-22T18:33:53.498Z,4.00
2022-12-22T18:36:28.826Z,2.72
2022-12-22T18:38:56.070Z,4.13
2022-12-22T18:41:25.126Z,4.80
2022-12-22T18:43:51.870Z,3.33
2022-12-22T18:46:19.089Z,4.13
2022-12-22T18:48:45.739Z,3.97
2022-12-22T18:51:22.197Z,5.47
2022-12-22T18:53:51.154Z,4.47
2022-12-22T18:56:18.416Z,4.35
2022-12-22T18:58:46.264Z,5.32
2022-12-22T19:01:23.045Z,5.00
2022-12-22T19:03:52.395Z,4.25
2022-12-22T19:06:20.714Z,4.32
2022-12-22T19:08:48.284Z,4.00
2022-12-22T19:11:17.631Z,4.82
2022-12-22T19:13:47.878Z,4.32
2022-12-22T19:16:18.073Z,4.38
2022-12-22T19:18:45.016Z,4.47
2022-12-22T19:21:17.059Z,6.78
2022-12-22T19:23:43.984Z,4.35
2022-12-22T19:26:21.059Z,5.38
2022-12-22T19:28:50.695Z,4.93
2022-12-22T19:31:29.194Z,6.32
2022-12-22T19:33:58.424Z,5.75
2022-12-22T19:36:27.698Z,5.35
2022-12-22T19:39:04.106Z,4.10
2022-12-22T19:41:50.953Z,3.45
2022-12-22T19:44:28.505Z,5.03
2022-12-22T19:46:57.080Z,3.83
2022-12-22T19:49:29.535Z,4.22
2022-12-22T19:51:56.648Z,5.18
2022-12-22T19:54:23.440Z,4.05
2022-12-22T19:56:53.415Z,5.35
2022-12-22T19:59:27.299Z,4.40
2022-12-22T20:01:58.614Z,3.50
2022-12-22T20:04:25.917Z,4.90
2022-12-22T20:06:52.604Z,4.20
2022-12-22T20:09:19.243Z,4.55
2022-12-22T20:11:46.202Z,4.78
2022-12-22T20:14:18.005Z,5.50
2022-12-22T20:16:47.426Z,5.93
2022-12-22T20:19:15.011Z,8.13
2022-12-22T20:21:42.387Z,5.72
2022-12-22T20:24:19.763Z,5.40
2022-12-22T20:26:53.486Z,6.10
2022-12-22T20:29:20.998Z,7.00
2022-12-22T20:31:47.727Z,6.07
2022-12-22T20:34:14.395Z,6.10
2022-12-22T20:36:43.178Z,5.07
2022-12-22T20:39:16.428Z,6.25
2022-12-22T20:41:47.023Z,4.85
2022-12-22T20:44:17.302Z,5.78
2022-12-22T20:46:44.005Z,3.08
2022-12-22T20:49:14.957Z,5.70
2022-12-22T20:51:42.095Z,5.82
2022-12-22T20:54:14.047Z,5.47
2022-12-22T20:56:40.974Z,5.20
2022-12-22T20:59:20.983Z,5.00
2022-12-22T21:01:49.439Z,4.43
2022-12-22T21:04:16.326Z,4.85
2022-12-22T21:06:55.146Z,3.42
2022-12-22T21:09:22.500Z,5.43
2022-12-22T21:11:49.830Z,3.70
2022-12-22T21:14:16.720Z,5.50
2022-12-22T21:16:43.905Z,5.75
2022-12-22T21:19:17.136Z,4.35
2022-12-22T21:21:43.871Z,4.95
2022-12-22T21:24:10.621Z,4.78
2022-12-22T21:26:52.758Z,5.07
2022-12-22T21:29:23.867Z,3.78
2022-12-22T21:31:50.864Z,4.03
2022-12-22T21:34:17.589Z,5.68
2022-12-22T21:36:46.519Z,4.65
2022-12-22T21:39:22.581Z,5.90
2022-12-22T21:42:01.665Z,5.07
2022-12-22T21:44:29.677Z,4.75
2022-12-22T21:46:56.624Z,5.15
2022-12-22T21:49:25.679Z,5.43
2022-12-22T21:51:53.561Z,4.38
2022-12-22T21:54:21.833Z,5.10
2022-12-22T21:56:49.601Z,5.68
2022-12-22T21:59:16.669Z,4.50
2022-12-22T22:01:44.942Z,4.60
2022-12-22T22:04:11.819Z,4.47
2022-12-22T22:06:38.420Z,5.38
2022-12-22T22:09:07.170Z,5.20
2022-12-22T22:11:54.035Z,5.32
2022-12-22T22:14:21.104Z,6.32
2022-12-22T22:16:47.960Z,5.15
2022-12-22T22:19:14.680Z,4.82
2022-12-22T22:21:41.351Z,5.18
2022-12-22T22:24:08.029Z,4.63
2022-12-22T22:26:34.658Z,5.10
2022-12-22T22:29:01.287Z,4.65
2022-12-22T22:31:27.882Z,3.80
2022-12-22T22:33:54.642Z,3.03
2022-12-22T22:36:21.597Z,4.38
2022-12-22T22:38:51.608Z,4.82
2022-12-22T22:41:18.341Z,3.90
2022-12-22T22:43:44.934Z,3.88
2022-12-22T22:46:11.594Z,4.07
2022-12-22T22:48:38.237Z,4.38
2022-12-22T22:51:04.977Z,2.70
2022-12-22T22:53:31.609Z,3.95
2022-12-22T22:56:02.482Z,2.42
2022-12-22T22:58:29.692Z,3.83
2022-12-22T23:00:56.457Z,3.58
2022-12-22T23:03:23.393Z,2.58
2022-12-22T23:05:50.078Z,4.28
2022-12-22T23:08:16.778Z,2.70
2022-12-22T23:10:49.542Z,2.38
2022-12-22T23:13:16.234Z,3.38
2022-12-22T23:15:42.895Z,3.30
2022-12-22T23:18:09.532Z,3.70
2022-12-22T23:20:36.202Z,2.47
2022-12-22T23:23:02.848Z,2.83
2022-12-22T23:25:29.440Z,4.22
2022-12-22T23:27:56.105Z,3.50
2022-12-22T23:30:22.747Z,3.97
2022-12-22T23:32:49.353Z,2.83
2022-12-22T23:35:15.987Z,2.45
2022-12-22T23:37:42.834Z,2.35
2022-12-22T23:40:51.024Z,3.38
2022-12-22T23:42:57.215Z,2.58
2022-12-22T23:45:24.161Z,2.00
2022-12-22T23:47:50.793Z,2.53
2022-12-22T23:50:17.550Z,3.47
2022-12-22T23:52:49.143Z,2.97
2022-12-22T23:55:16.330Z,3.60
2022-12-22T23:57:43.046Z,4.00
